Asbury, Missouri
Current Conditions -  °F | °C
As of 5:53 AM on Thursday 23 Oct 2014 (Local Time) from KJLN Reporting Station
Broken Clouds Broken Clouds  
Wind Chill: 57°   Ceiling: 11000
Heat Index: 57°   Visibility: 10mi
Dew Point: 51°   Wind: 5mph
Humidity: 81%   Direction: 180°S
Pressure: 30.14"   Gusts: NA
Location:  37.27°N, 94.61°W
Report Text: KJLN 231053Z 18004KT 10SM BKN110 14/11 A3014 RMK AO2 SLP200 T01390106
Loading
Personal Weather Stations






























Interactive Weather Map
Tropical Storm Tracking
New forecast layout! Learn more

10-Day Weather Forecast

Advertisements
Track Severe Weather on mobile